Hartford, Connecticut
Current Conditions -  °F | °C
As of 10:53 AM on Tuesday 21 Oct 2014 (Local Time) from KHFD Reporting Station
Broken Clouds Broken Clouds  
Wind Chill: 13°   Ceiling: 12000
Heat Index: 13°   Visibility: 10mi
Dew Point:   Wind: 6mph
Humidity: 75%   Direction: NA
Pressure: 29.93"   Gusts: NA
Location:  41.76°N, 72.67°W
Report Text: KHFD 211453Z VRB05KT 10SM FEW090 BKN120 13/09 A2993 RMK AO2 SLP135 T01330089 58004
Loading
Personal Weather Stations






























Interactive Weather Map
Tropical Storm Tracking
New forecast layout! Learn more

10-Day Weather Forecast

Advertisements
Track Severe Weather on mobile